createdAt,value
2019-04-16T00:04:24.857Z,8.70
2019-04-16T00:09:32.240Z,9.23
2019-04-16T00:14:42.582Z,10.05
2019-04-16T00:19:50.179Z,11.12
2019-04-16T00:24:57.503Z,12.03
2019-04-16T00:30:05.930Z,11.80
2019-04-16T00:35:15.660Z,11.80
2019-04-16T00:40:26.405Z,9.90
2019-04-16T00:45:31.588Z,10.10
2019-04-16T00:50:39.844Z,9.48
2019-04-16T00:55:47.826Z,8.03
2019-04-16T01:00:55.315Z,9.70
2019-04-16T01:06:07.042Z,9.05
2019-04-16T01:11:12.154Z,9.08
2019-04-16T01:16:19.619Z,8.43
2019-04-16T01:21:27.728Z,9.53
2019-04-16T01:26:36.724Z,9.30
2019-04-16T01:31:45.462Z,9.50
2019-04-16T01:36:54.371Z,10.03
2019-04-16T01:42:02.691Z,9.95
2019-04-16T01:47:10.560Z,10.13
2019-04-16T01:52:19.091Z,10.00
2019-04-16T01:57:28.384Z,9.65
2019-04-16T02:02:35.968Z,10.75
2019-04-16T02:07:42.989Z,10.53
2019-04-16T02:12:50.059Z,9.53
2019-04-16T02:17:58.767Z,10.58
2019-04-16T02:23:06.200Z,11.00
2019-04-16T02:28:13.321Z,11.20
2019-04-16T02:33:21.344Z,12.58
2019-04-16T02:38:29.430Z,11.38
2019-04-16T02:43:41.006Z,13.03
2019-04-16T02:48:51.530Z,13.28
2019-04-16T02:53:58.907Z,13.50
2019-04-16T02:59:11.875Z,13.30
2019-04-16T03:04:17.455Z,12.35
2019-04-16T03:09:25.829Z,12.35
2019-04-16T03:14:33.359Z,12.78
2019-04-16T03:19:48.341Z,11.85
2019-04-16T03:24:55.058Z,12.05
2019-04-16T03:30:05.131Z,12.23
2019-04-16T03:35:12.337Z,10.90
2019-04-16T03:40:25.950Z,10.58
2019-04-16T03:45:41.675Z,11.35
2019-04-16T03:50:49.593Z,10.68
2019-04-16T03:55:58.324Z,10.38
2019-04-16T04:01:05.764Z,11.05
2019-04-16T04:06:13.431Z,10.13
2019-04-16T04:11:21.012Z,10.85
2019-04-16T04:16:30.594Z,10.30
2019-04-16T04:21:38.470Z,11.00
2019-04-16T04:26:46.305Z,10.72
2019-04-16T04:31:54.015Z,10.10
2019-04-16T04:37:01.534Z,10.65
2019-04-16T04:42:08.679Z,10.45
2019-04-16T04:47:19.409Z,9.73
2019-04-16T04:52:27.987Z,10.17
2019-04-16T04:57:35.767Z,10.70
2019-04-16T05:02:44.525Z,10.05
2019-04-16T05:07:52.210Z,9.43
2019-04-16T05:13:00.924Z,10.03
2019-04-16T05:18:09.894Z,8.78
2019-04-16T05:23:28.099Z,10.00
2019-04-16T05:28:35.500Z,9.53
2019-04-16T05:33:43.599Z,9.15
2019-04-16T05:38:55.523Z,9.10
2019-04-16T05:44:01.771Z,8.98
2019-04-16T05:49:09.953Z,9.28
2019-04-16T05:54:18.264Z,9.03
2019-04-16T05:59:26.222Z,8.98
2019-04-16T06:04:34.533Z,9.73
2019-04-16T06:09:44.511Z,9.83
2019-04-16T06:15:12.051Z,10.30
2019-04-16T06:20:21.386Z,9.75
2019-04-16T06:25:30.523Z,9.53
2019-04-16T06:30:40.285Z,9.45
2019-04-16T06:35:48.797Z,9.45
2019-04-16T06:40:57.610Z,9.33
2019-04-16T06:46:08.367Z,11.22
2019-04-16T06:51:16.814Z,10.23
2019-04-16T06:56:25.575Z,9.48
2019-04-16T07:01:36.756Z,10.10
2019-04-16T07:06:54.483Z,9.05
2019-04-16T07:12:03.382Z,9.20
2019-04-16T07:17:11.950Z,8.95
2019-04-16T08:03:08.617Z,10.98
2019-04-16T08:08:16.347Z,9.70
2019-04-16T08:13:24.882Z,10.03
2019-04-16T08:18:32.135Z,9.00
2019-04-16T08:23:41.068Z,9.60
2019-04-16T08:28:48.468Z,9.70
2019-04-16T08:33:56.629Z,9.90
2019-04-16T08:39:06.657Z,10.25
2019-04-16T08:44:14.180Z,10.10
2019-04-16T08:49:22.501Z,9.05
2019-04-16T08:54:30.912Z,10.32
2019-04-16T08:59:39.481Z,10.25
2019-04-16T09:04:47.864Z,10.40
2019-04-16T09:09:57.625Z,9.28
2019-04-16T09:15:05.920Z,10.18
2019-04-16T09:20:14.812Z,11.08
2019-04-16T09:25:23.421Z,10.80
2019-04-16T09:30:32.575Z,10.38
2019-04-16T09:40:49.400Z,11.15
2019-04-16T09:46:09.632Z,10.90
2019-04-16T09:51:05.754Z,12.47
2019-04-16T10:14:30.219Z,11.35
2019-04-16T10:26:06.835Z,10.50
2019-04-16T10:31:22.537Z,9.28
2019-04-16T10:36:30.297Z,9.65
2019-04-16T10:41:39.139Z,9.68
2019-04-16T10:46:48.404Z,10.53
2019-04-16T10:52:55.676Z,10.75
2019-04-16T10:58:04.859Z,12.75
2019-04-16T11:03:34.396Z,13.45
2019-04-16T11:08:50.701Z,11.40
2019-04-16T11:14:00.244Z,11.68
2019-04-16T11:19:16.775Z,12.45
2019-04-16T11:24:23.928Z,12.30
2019-04-16T11:29:31.243Z,12.85
2019-04-16T11:34:38.644Z,11.90
2019-04-16T11:39:45.922Z,12.40
2019-04-16T11:44:53.390Z,12.60
2019-04-16T11:50:02.445Z,12.88
2019-04-16T11:55:12.381Z,14.45
2019-04-16T12:00:21.820Z,14.15
2019-04-16T12:05:30.770Z,15.37
2019-04-16T12:10:39.968Z,15.13
2019-04-16T12:15:48.969Z,16.82
2019-04-16T12:20:57.945Z,17.12
2019-04-16T12:26:09.520Z,18.07
2019-04-16T12:31:17.506Z,20.32
2019-04-16T12:36:26.599Z,17.48
2019-04-16T12:41:36.099Z,16.32
2019-04-16T12:46:57.468Z,14.33
2019-04-16T12:52:06.458Z,14.30
2019-04-16T12:57:16.659Z,15.58
2019-04-16T13:02:26.546Z,14.85
2019-04-16T13:07:38.756Z,15.38
2019-04-16T13:12:44.768Z,15.97
2019-04-16T13:17:53.465Z,14.75
2019-04-16T13:23:02.409Z,13.90
2019-04-16T13:28:09.837Z,14.30
2019-04-16T13:33:17.329Z,13.25
2019-04-16T13:38:26.778Z,13.38
2019-04-16T13:43:55.583Z,13.07
2019-04-16T13:49:04.106Z,13.22
2019-04-16T13:54:13.010Z,13.95
2019-04-16T13:59:21.991Z,14.78
2019-04-16T14:04:31.528Z,17.45
2019-04-16T14:09:37.905Z,16.87
2019-04-16T14:14:46.749Z,16.07
2019-04-16T14:19:54.442Z,16.17
2019-04-16T14:25:02.663Z,15.53
2019-04-16T14:30:12.088Z,16.32
2019-04-16T14:35:33.114Z,15.80
2019-04-16T14:40:30.336Z,15.10
2019-04-16T14:45:56.966Z,14.28
2019-04-16T14:50:48.243Z,12.73
2019-04-16T14:56:00.601Z,13.22
2019-04-16T15:01:07.028Z,13.97
2019-04-16T15:06:17.018Z,12.50
2019-04-16T15:11:25.741Z,13.43
2019-04-16T15:16:35.530Z,14.87
2019-04-16T15:21:45.376Z,15.10
2019-04-16T15:26:55.037Z,15.63
2019-04-16T15:32:05.932Z,19.55
2019-04-16T15:37:14.700Z,23.70
2019-04-16T15:42:23.436Z,23.57
2019-04-16T15:47:32.870Z,24.12
2019-04-16T15:52:41.958Z,20.97
2019-04-16T15:57:51.183Z,18.50
2019-04-16T16:02:59.391Z,18.17
2019-04-16T16:08:08.864Z,19.50
2019-04-16T16:13:15.971Z,21.17
2019-04-16T16:18:23.742Z,20.17
2019-04-16T16:23:34.058Z,17.40
2019-04-16T16:28:40.771Z,15.03
2019-04-16T16:33:48.059Z,15.30
2019-04-16T16:38:56.129Z,15.55
2019-04-16T16:44:03.635Z,14.78
2019-04-16T16:49:10.868Z,15.32
2019-04-16T16:54:20.220Z,15.53
2019-04-16T16:59:29.702Z,15.35
2019-04-16T17:04:38.422Z,16.90
2019-04-16T17:09:46.462Z,15.78
2019-04-16T17:14:53.533Z,17.12
2019-04-16T17:20:02.216Z,16.85
2019-04-16T17:25:11.647Z,17.62
2019-04-16T17:30:19.321Z,17.20
2019-04-16T17:35:27.244Z,16.37
2019-04-16T17:40:36.535Z,18.30
2019-04-16T17:45:44.083Z,17.48
2019-04-16T17:50:52.975Z,18.50
2019-04-16T17:56:01.376Z,22.27
2019-04-16T18:01:11.016Z,21.85
2019-04-16T18:06:19.433Z,24.25
2019-04-16T18:11:27.782Z,25.35
2019-04-16T18:16:36.064Z,25.88
2019-04-16T18:21:43.279Z,26.10
2019-04-16T18:26:52.207Z,25.72
2019-04-16T18:32:00.613Z,27.75
2019-04-16T18:37:08.952Z,27.48
2019-04-16T18:42:17.366Z,27.13
2019-04-16T18:47:25.636Z,27.15
2019-04-16T18:52:32.718Z,27.40
2019-04-16T18:57:40.201Z,27.35
2019-04-16T19:02:46.985Z,26.93
2019-04-16T19:07:55.886Z,28.02
2019-04-16T19:13:09.743Z,29.57
2019-04-16T19:18:19.499Z,30.35
2019-04-16T19:23:21.554Z,30.12
2019-04-16T19:28:28.770Z,30.37
2019-04-16T19:33:38.258Z,32.23
2019-04-16T19:38:44.130Z,31.35
2019-04-16T19:43:51.434Z,32.20
2019-04-16T19:49:00.457Z,32.75
2019-04-16T19:54:06.995Z,31.93
2019-04-16T19:59:13.760Z,32.75
2019-04-16T20:04:20.908Z,30.88
2019-04-16T20:09:28.146Z,30.08
2019-04-16T20:14:36.260Z,31.48
2019-04-16T20:19:44.920Z,32.20
2019-04-16T20:24:52.028Z,31.93
2019-04-16T20:30:00.275Z,32.40
2019-04-16T20:35:07.878Z,31.70
2019-04-16T20:40:17.732Z,30.55
2019-04-16T20:45:24.008Z,33.42
2019-04-16T20:50:31.941Z,31.55
2019-04-16T20:55:39.054Z,31.93
2019-04-16T21:00:47.925Z,29.77
2019-04-16T21:05:59.152Z,29.15
2019-04-16T21:11:07.386Z,29.45
2019-04-16T21:16:12.891Z,29.55
2019-04-16T21:21:23.355Z,28.23
2019-04-16T21:26:30.084Z,27.55
2019-04-16T21:31:41.466Z,28.40
2019-04-16T21:36:48.493Z,26.50
2019-04-16T21:42:00.848Z,26.25
2019-04-16T21:47:05.546Z,26.73
2019-04-16T21:52:14.626Z,26.23
2019-04-16T21:57:22.751Z,26.77
2019-04-16T22:02:34.440Z,26.33
2019-04-16T22:07:41.605Z,26.42
2019-04-16T22:12:49.103Z,27.20
2019-04-16T22:17:56.244Z,29.02
2019-04-16T22:23:03.758Z,27.73
2019-04-16T22:28:12.925Z,28.55
2019-04-16T22:33:22.562Z,26.23
2019-04-16T22:38:31.567Z,26.75
2019-04-16T22:43:42.606Z,27.15
2019-04-16T22:48:51.117Z,27.17
2019-04-16T22:53:59.145Z,28.87
2019-04-16T22:59:12.895Z,35.08
2019-04-16T23:04:41.884Z,36.63
2019-04-16T23:09:50.172Z,34.73
2019-04-16T23:14:58.148Z,34.92
2019-04-16T23:20:06.732Z,35.63
2019-04-16T23:25:14.897Z,52.95
2019-04-16T23:30:22.461Z,38.42
2019-04-16T23:35:30.481Z,38.45
2019-04-16T23:40:40.656Z,42.95
2019-04-16T23:45:48.011Z,38.35
2019-04-16T23:50:57.120Z,38.28
2019-04-16T23:56:04.671Z,35.70
